Portada
METAR-TAF:

METAR-TAF

Aeropuertos :

Aeropuerto de Graz

Graz, Austria

latitud: 47-00N, longitud: 015-26E, altitud: 340 m

Observación

El informe se hizo hace 41 minutos, a las 08:20 UTC
Viento 3 kt del sur-sureste, variando entre este-sureste y sur
Temperatura -1°C
Humedad 69%
Presión 1025 hPa
Visibilidad 10 km o más
sin nubes por debajo de 1500 m y sin presencia de cumulonimbus.

METAR: LOWG 070820Z 15003KT 120V190 CAVOK M01/M06 Q1025 NOSIG

Hora: 10:01 (09:01 UTC)

Pronóstico

El informe se hizo hace 3 horas y 46 minutos, a las 05:15 UTC
Pronóstico válido del 07 a las 06 UTC al 08 a las 06 UTC
Viento 4 kt con dirección variable
Visibilidad 10 km o más
sin nubes por debajo de 1500 m y sin presencia de cumulonimbus.

TAF: LOWG 070515Z 0706/0806 VRB04KT CAVOK TX09/0714Z TNM08/0706Z

Observaciones y pronósticos meteorológicos de más de 4000 aeropuertos (mensajes METAR y TAF).

Los puntos amarillos y rojos representan las estaciones disponibles.

Ponga el ratón en el punto deseado para ver el nombre de la estación.

Haga clic para ver las observaciones y los pronósticos meteorológicos.

Para cambiar el mapa : haga clic en los botones verdes con una cruz de color negro para hacer un zoom, en el botón verde con un guión para alejar o en las flechas verdes para mapas adyacentes.


METAR-TAF: